sensor_id;sensor_type;location;lat;lon;timestamp;P1;durP1;ratioP1;P2;durP2;ratioP2
77078;SDS011;66004;55.096;38.760;2023-09-30T00:00:14;15.48;;;8.80;;
77078;SDS011;66004;55.096;38.760;2023-09-30T00:02:40;18.92;;;9.18;;
77078;SDS011;66004;55.096;38.760;2023-09-30T00:05:05;17.95;;;9.48;;
77078;SDS011;66004;55.096;38.760;2023-09-30T00:07:31;18.38;;;8.50;;
77078;SDS011;66004;55.096;38.760;2023-09-30T00:09:57;21.52;;;9.55;;
77078;SDS011;66004;55.096;38.760;2023-09-30T00:12:22;16.00;;;8.82;;
77078;SDS011;66004;55.096;38.760;2023-09-30T00:14:48;17.27;;;9.13;;
77078;SDS011;66004;55.096;38.760;2023-09-30T00:17:14;15.45;;;8.82;;
77078;SDS011;66004;55.096;38.760;2023-09-30T00:19:40;16.35;;;9.15;;
77078;SDS011;66004;55.096;38.760;2023-09-30T00:22:06;15.93;;;8.45;;
77078;SDS011;66004;55.096;38.760;2023-09-30T00:24:31;16.80;;;8.68;;
77078;SDS011;66004;55.096;38.760;2023-09-30T00:26:57;16.63;;;8.98;;
77078;SDS011;66004;55.096;38.760;2023-09-30T00:29:22;16.08;;;8.48;;
77078;SDS011;66004;55.096;38.760;2023-09-30T00:31:48;17.20;;;8.30;;
77078;SDS011;66004;55.096;38.760;2023-09-30T00:34:14;17.35;;;8.88;;
77078;SDS011;66004;55.096;38.760;2023-09-30T00:36:39;17.30;;;8.77;;
77078;SDS011;66004;55.096;38.760;2023-09-30T00:39:06;17.58;;;8.15;;
77078;SDS011;66004;55.096;38.760;2023-09-30T00:41:33;18.60;;;7.22;;
77078;SDS011;66004;55.096;38.760;2023-09-30T00:43:59;18.88;;;8.77;;
77078;SDS011;66004;55.096;38.760;2023-09-30T00:46:43;16.60;;;8.90;;
77078;SDS011;66004;55.096;38.760;2023-09-30T00:49:08;16.38;;;8.77;;
77078;SDS011;66004;55.096;38.760;2023-09-30T00:51:35;15.55;;;9.68;;
77078;SDS011;66004;55.096;38.760;2023-09-30T00:54:01;19.77;;;8.25;;
77078;SDS011;66004;55.096;38.760;2023-09-30T00:56:29;15.38;;;8.43;;
77078;SDS011;66004;55.096;38.760;2023-09-30T00:58:55;16.92;;;8.48;;
77078;SDS011;66004;55.096;38.760;2023-09-30T01:01:21;16.15;;;8.95;;
77078;SDS011;66004;55.096;38.760;2023-09-30T01:03:47;18.77;;;9.48;;
77078;SDS011;66004;55.096;38.760;2023-09-30T01:06:13;19.52;;;10.73;;
77078;SDS011;66004;55.096;38.760;2023-09-30T01:08:38;17.73;;;9.82;;
77078;SDS011;66004;55.096;38.760;2023-09-30T01:11:04;23.40;;;10.82;;
77078;SDS011;66004;55.096;38.760;2023-09-30T01:13:37;20.40;;;10.10;;
77078;SDS011;66004;55.096;38.760;2023-09-30T01:16:06;25.60;;;12.68;;
77078;SDS011;66004;55.096;38.760;2023-09-30T01:18:36;22.40;;;11.85;;
77078;SDS011;66004;55.096;38.760;2023-09-30T01:21:04;25.98;;;12.63;;
77078;SDS011;66004;55.096;38.760;2023-09-30T01:23:31;26.38;;;13.02;;
77078;SDS011;66004;55.096;38.760;2023-09-30T01:25:57;31.35;;;14.48;;
77078;SDS011;66004;55.096;38.760;2023-09-30T01:28:25;30.50;;;14.32;;
77078;SDS011;66004;55.096;38.760;2023-09-30T01:30:51;28.27;;;13.23;;
77078;SDS011;66004;55.096;38.760;2023-09-30T01:33:17;25.63;;;13.10;;
77078;SDS011;66004;55.096;38.760;2023-09-30T01:35:44;23.52;;;12.73;;
77078;SDS011;66004;55.096;38.760;2023-09-30T01:38:10;23.30;;;11.30;;
77078;SDS011;66004;55.096;38.760;2023-09-30T01:40:35;26.60;;;11.38;;
77078;SDS011;66004;55.096;38.760;2023-09-30T01:43:02;17.98;;;10.68;;
77078;SDS011;66004;55.096;38.760;2023-09-30T01:45:28;21.00;;;11.15;;
77078;SDS011;66004;55.096;38.760;2023-09-30T01:47:53;19.95;;;10.40;;
77078;SDS011;66004;55.096;38.760;2023-09-30T01:50:19;18.40;;;9.77;;
77078;SDS011;66004;55.096;38.760;2023-09-30T01:52:45;18.83;;;10.93;;
77078;SDS011;66004;55.096;38.760;2023-09-30T01:55:10;22.52;;;10.38;;
77078;SDS011;66004;55.096;38.760;2023-09-30T01:57:36;19.25;;;10.60;;
77078;SDS011;66004;55.096;38.760;2023-09-30T02:00:02;20.83;;;9.23;;
77078;SDS011;66004;55.096;38.760;2023-09-30T02:02:27;24.85;;;10.15;;
77078;SDS011;66004;55.096;38.760;2023-09-30T02:04:53;17.88;;;10.75;;
77078;SDS011;66004;55.096;38.760;2023-09-30T02:07:19;19.80;;;9.80;;
77078;SDS011;66004;55.096;38.760;2023-09-30T02:09:44;19.45;;;10.20;;
77078;SDS011;66004;55.096;38.760;2023-09-30T02:12:10;22.55;;;10.60;;
77078;SDS011;66004;55.096;38.760;2023-09-30T02:14:35;18.33;;;9.82;;
77078;SDS011;66004;55.096;38.760;2023-09-30T02:17:03;17.65;;;9.68;;
77078;SDS011;66004;55.096;38.760;2023-09-30T02:19:29;21.90;;;9.80;;
77078;SDS011;66004;55.096;38.760;2023-09-30T02:21:56;21.88;;;9.55;;
77078;SDS011;66004;55.096;38.760;2023-09-30T02:24:22;18.77;;;9.18;;
77078;SDS011;66004;55.096;38.760;2023-09-30T02:26:48;21.63;;;9.77;;
77078;SDS011;66004;55.096;38.760;2023-09-30T02:29:13;17.30;;;8.65;;
77078;SDS011;66004;55.096;38.760;2023-09-30T02:31:39;17.42;;;8.85;;
77078;SDS011;66004;55.096;38.760;2023-09-30T02:34:06;16.95;;;9.00;;
77078;SDS011;66004;55.096;38.760;2023-09-30T02:36:32;17.75;;;9.05;;
77078;SDS011;66004;55.096;38.760;2023-09-30T02:38:58;14.98;;;8.65;;
77078;SDS011;66004;55.096;38.760;2023-09-30T02:41:26;16.63;;;8.93;;
77078;SDS011;66004;55.096;38.760;2023-09-30T02:43:51;21.83;;;9.45;;
77078;SDS011;66004;55.096;38.760;2023-09-30T02:46:16;19.13;;;8.52;;
77078;SDS011;66004;55.096;38.760;2023-09-30T02:48:42;16.48;;;8.80;;
77078;SDS011;66004;55.096;38.760;2023-09-30T02:51:11;19.63;;;9.43;;
77078;SDS011;66004;55.096;38.760;2023-09-30T02:53:37;16.05;;;8.48;;
77078;SDS011;66004;55.096;38.760;2023-09-30T02:56:03;17.25;;;8.43;;
77078;SDS011;66004;55.096;38.760;2023-09-30T02:58:29;16.45;;;8.40;;
77078;SDS011;66004;55.096;38.760;2023-09-30T03:00:55;14.52;;;8.10;;
77078;SDS011;66004;55.096;38.760;2023-09-30T03:03:20;19.08;;;8.32;;
77078;SDS011;66004;55.096;38.760;2023-09-30T03:05:46;14.10;;;8.52;;
77078;SDS011;66004;55.096;38.760;2023-09-30T03:08:15;16.85;;;8.32;;
77078;SDS011;66004;55.096;38.760;2023-09-30T03:10:41;14.70;;;7.90;;
77078;SDS011;66004;55.096;38.760;2023-09-30T03:13:07;18.23;;;8.60;;
77078;SDS011;66004;55.096;38.760;2023-09-30T03:15:34;14.68;;;7.90;;
77078;SDS011;66004;55.096;38.760;2023-09-30T03:18:00;19.40;;;8.82;;
77078;SDS011;66004;55.096;38.760;2023-09-30T03:20:26;19.35;;;8.90;;
77078;SDS011;66004;55.096;38.760;2023-09-30T03:22:52;16.73;;;8.32;;
77078;SDS011;66004;55.096;38.760;2023-09-30T03:25:19;19.13;;;7.72;;
77078;SDS011;66004;55.096;38.760;2023-09-30T03:27:45;18.50;;;7.90;;
77078;SDS011;66004;55.096;38.760;2023-09-30T03:30:12;16.40;;;7.82;;
77078;SDS011;66004;55.096;38.760;2023-09-30T03:32:38;18.20;;;8.50;;
77078;SDS011;66004;55.096;38.760;2023-09-30T03:35:07;16.92;;;7.65;;
77078;SDS011;66004;55.096;38.760;2023-09-30T03:37:36;19.58;;;8.30;;
77078;SDS011;66004;55.096;38.760;2023-09-30T03:40:04;15.50;;;8.00;;
77078;SDS011;66004;55.096;38.760;2023-09-30T03:42:38;17.17;;;7.57;;
77078;SDS011;66004;55.096;38.760;2023-09-30T03:45:10;13.82;;;7.70;;
77078;SDS011;66004;55.096;38.760;2023-09-30T03:47:37;17.50;;;8.27;;
77078;SDS011;66004;55.096;38.760;2023-09-30T03:50:06;18.48;;;8.30;;
77078;SDS011;66004;55.096;38.760;2023-09-30T03:52:39;14.35;;;8.93;;
77078;SDS011;66004;55.096;38.760;2023-09-30T03:55:09;22.05;;;9.00;;
77078;SDS011;66004;55.096;38.760;2023-09-30T03:57:37;16.70;;;8.27;;
77078;SDS011;66004;55.096;38.760;2023-09-30T04:00:05;16.08;;;8.95;;
77078;SDS011;66004;55.096;38.760;2023-09-30T04:02:32;14.43;;;8.25;;
77078;SDS011;66004;55.096;38.760;2023-09-30T04:04:58;17.95;;;8.68;;
77078;SDS011;66004;55.096;38.760;2023-09-30T04:07:25;17.85;;;8.48;;
77078;SDS011;66004;55.096;38.760;2023-09-30T04:09:55;19.15;;;8.85;;
77078;SDS011;66004;55.096;38.760;2023-09-30T04:12:21;19.75;;;9.32;;
77078;SDS011;66004;55.096;38.760;2023-09-30T04:14:49;17.95;;;8.77;;
77078;SDS011;66004;55.096;38.760;2023-09-30T04:17:14;17.10;;;8.63;;
77078;SDS011;66004;55.096;38.760;2023-09-30T04:19:40;17.75;;;9.32;;
77078;SDS011;66004;55.096;38.760;2023-09-30T04:22:05;20.48;;;9.32;;
77078;SDS011;66004;55.096;38.760;2023-09-30T04:24:31;19.20;;;9.43;;
77078;SDS011;66004;55.096;38.760;2023-09-30T04:26:56;20.30;;;8.50;;
77078;SDS011;66004;55.096;38.760;2023-09-30T04:29:29;18.30;;;8.93;;
77078;SDS011;66004;55.096;38.760;2023-09-30T04:31:57;19.40;;;8.63;;
77078;SDS011;66004;55.096;38.760;2023-09-30T04:34:23;19.45;;;9.00;;
77078;SDS011;66004;55.096;38.760;2023-09-30T04:36:49;15.93;;;8.45;;
77078;SDS011;66004;55.096;38.760;2023-09-30T04:39:14;18.92;;;8.85;;
77078;SDS011;66004;55.096;38.760;2023-09-30T04:41:41;22.10;;;9.55;;
77078;SDS011;66004;55.096;38.760;2023-09-30T04:44:09;19.48;;;8.45;;
77078;SDS011;66004;55.096;38.760;2023-09-30T04:46:36;17.17;;;8.13;;
77078;SDS011;66004;55.096;38.760;2023-09-30T04:49:07;20.48;;;10.50;;
77078;SDS011;66004;55.096;38.760;2023-09-30T04:51:33;18.30;;;9.32;;
77078;SDS011;66004;55.096;38.760;2023-09-30T04:53:59;17.08;;;8.77;;
77078;SDS011;66004;55.096;38.760;2023-09-30T04:56:25;20.50;;;9.68;;
77078;SDS011;66004;55.096;38.760;2023-09-30T04:58:50;20.23;;;9.27;;
77078;SDS011;66004;55.096;38.760;2023-09-30T05:01:16;14.82;;;8.25;;
77078;SDS011;66004;55.096;38.760;2023-09-30T05:03:43;21.20;;;8.05;;
77078;SDS011;66004;55.096;38.760;2023-09-30T05:06:09;21.98;;;9.38;;
77078;SDS011;66004;55.096;38.760;2023-09-30T05:08:35;22.63;;;10.43;;
77078;SDS011;66004;55.096;38.760;2023-09-30T05:11:00;23.08;;;8.57;;
77078;SDS011;66004;55.096;38.760;2023-09-30T05:13:26;17.63;;;7.97;;
77078;SDS011;66004;55.096;38.760;2023-09-30T05:15:51;18.38;;;9.02;;
77078;SDS011;66004;55.096;38.760;2023-09-30T05:18:18;22.27;;;9.43;;
77078;SDS011;66004;55.096;38.760;2023-09-30T05:20:43;15.27;;;8.02;;
77078;SDS011;66004;55.096;38.760;2023-09-30T05:23:09;15.98;;;8.85;;
77078;SDS011;66004;55.096;38.760;2023-09-30T05:25:38;16.23;;;8.38;;
77078;SDS011;66004;55.096;38.760;2023-09-30T05:28:05;16.80;;;8.68;;
77078;SDS011;66004;55.096;38.760;2023-09-30T05:30:34;19.40;;;11.00;;
77078;SDS011;66004;55.096;38.760;2023-09-30T05:33:00;21.23;;;9.80;;
77078;SDS011;66004;55.096;38.760;2023-09-30T05:35:26;17.88;;;9.65;;
77078;SDS011;66004;55.096;38.760;2023-09-30T05:37:53;23.98;;;10.35;;
77078;SDS011;66004;55.096;38.760;2023-09-30T05:40:19;19.63;;;11.10;;
77078;SDS011;66004;55.096;38.760;2023-09-30T05:42:47;22.70;;;10.90;;
77078;SDS011;66004;55.096;38.760;2023-09-30T05:45:16;21.98;;;10.93;;
77078;SDS011;66004;55.096;38.760;2023-09-30T05:47:42;24.08;;;11.70;;
77078;SDS011;66004;55.096;38.760;2023-09-30T05:50:09;24.65;;;12.02;;
77078;SDS011;66004;55.096;38.760;2023-09-30T05:52:39;19.27;;;11.25;;
77078;SDS011;66004;55.096;38.760;2023-09-30T05:55:05;25.70;;;12.32;;
77078;SDS011;66004;55.096;38.760;2023-09-30T05:57:32;28.45;;;11.93;;
77078;SDS011;66004;55.096;38.760;2023-09-30T05:59:57;20.73;;;10.38;;
77078;SDS011;66004;55.096;38.760;2023-09-30T06:02:23;20.65;;;9.40;;
77078;SDS011;66004;55.096;38.760;2023-09-30T06:04:48;22.63;;;11.80;;
77078;SDS011;66004;55.096;38.760;2023-09-30T06:07:16;25.45;;;11.90;;
77078;SDS011;66004;55.096;38.760;2023-09-30T06:09:43;19.85;;;10.93;;
77078;SDS011;66004;55.096;38.760;2023-09-30T06:12:08;18.38;;;10.25;;
77078;SDS011;66004;55.096;38.760;2023-09-30T06:14:36;27.90;;;11.98;;
77078;SDS011;66004;55.096;38.760;2023-09-30T06:17:02;24.60;;;11.00;;
77078;SDS011;66004;55.096;38.760;2023-09-30T06:19:27;23.80;;;10.82;;
77078;SDS011;66004;55.096;38.760;2023-09-30T06:21:53;20.67;;;9.82;;
77078;SDS011;66004;55.096;38.760;2023-09-30T06:24:19;19.38;;;10.00;;
77078;SDS011;66004;55.096;38.760;2023-09-30T06:26:45;16.65;;;7.68;;
77078;SDS011;66004;55.096;38.760;2023-09-30T06:29:10;16.10;;;8.50;;
77078;SDS011;66004;55.096;38.760;2023-09-30T06:31:36;13.98;;;7.38;;
77078;SDS011;66004;55.096;38.760;2023-09-30T06:34:02;16.02;;;7.53;;
77078;SDS011;66004;55.096;38.760;2023-09-30T06:36:29;16.75;;;7.57;;
77078;SDS011;66004;55.096;38.760;2023-09-30T06:38:55;15.20;;;6.93;;
77078;SDS011;66004;55.096;38.760;2023-09-30T06:41:20;13.60;;;6.82;;
77078;SDS011;66004;55.096;38.760;2023-09-30T06:43:46;16.20;;;7.03;;
77078;SDS011;66004;55.096;38.760;2023-09-30T06:46:12;17.40;;;8.63;;
77078;SDS011;66004;55.096;38.760;2023-09-30T06:48:38;17.70;;;8.88;;
77078;SDS011;66004;55.096;38.760;2023-09-30T06:51:07;30.20;;;9.77;;
77078;SDS011;66004;55.096;38.760;2023-09-30T06:53:33;20.73;;;10.05;;
77078;SDS011;66004;55.096;38.760;2023-09-30T06:55:58;16.90;;;10.45;;
77078;SDS011;66004;55.096;38.760;2023-09-30T06:58:24;18.48;;;9.27;;
77078;SDS011;66004;55.096;38.760;2023-09-30T07:00:50;20.25;;;10.13;;
77078;SDS011;66004;55.096;38.760;2023-09-30T07:03:16;26.98;;;11.68;;
77078;SDS011;66004;55.096;38.760;2023-09-30T07:05:42;26.17;;;11.00;;
77078;SDS011;66004;55.096;38.760;2023-09-30T07:08:09;27.73;;;11.63;;
77078;SDS011;66004;55.096;38.760;2023-09-30T07:10:35;23.50;;;10.25;;
77078;SDS011;66004;55.096;38.760;2023-09-30T07:13:03;16.92;;;8.90;;
77078;SDS011;66004;55.096;38.760;2023-09-30T07:15:29;15.77;;;8.32;;
77078;SDS011;66004;55.096;38.760;2023-09-30T07:17:54;19.23;;;10.30;;
77078;SDS011;66004;55.096;38.760;2023-09-30T07:20:21;19.50;;;10.38;;
77078;SDS011;66004;55.096;38.760;2023-09-30T07:22:48;23.02;;;10.70;;
77078;SDS011;66004;55.096;38.760;2023-09-30T07:25:14;35.03;;;12.55;;
77078;SDS011;66004;55.096;38.760;2023-09-30T07:27:43;21.33;;;10.15;;
77078;SDS011;66004;55.096;38.760;2023-09-30T07:30:10;13.68;;;7.53;;
77078;SDS011;66004;55.096;38.760;2023-09-30T07:32:37;16.63;;;7.97;;
77078;SDS011;66004;55.096;38.760;2023-09-30T07:35:03;17.10;;;7.57;;
77078;SDS011;66004;55.096;38.760;2023-09-30T07:37:29;15.80;;;6.40;;
77078;SDS011;66004;55.096;38.760;2023-09-30T07:39:54;15.75;;;8.30;;
77078;SDS011;66004;55.096;38.760;2023-09-30T07:42:20;10.65;;;6.13;;
77078;SDS011;66004;55.096;38.760;2023-09-30T07:44:47;15.27;;;6.50;;
77078;SDS011;66004;55.096;38.760;2023-09-30T07:47:13;12.43;;;5.97;;
77078;SDS011;66004;55.096;38.760;2023-09-30T07:49:39;10.70;;;5.47;;
77078;SDS011;66004;55.096;38.760;2023-09-30T07:52:05;15.98;;;6.22;;
77078;SDS011;66004;55.096;38.760;2023-09-30T07:54:30;20.27;;;8.43;;
77078;SDS011;66004;55.096;38.760;2023-09-30T07:56:56;21.05;;;9.73;;
77078;SDS011;66004;55.096;38.760;2023-09-30T07:59:22;24.13;;;11.63;;
77078;SDS011;66004;55.096;38.760;2023-09-30T08:01:48;23.45;;;12.10;;
77078;SDS011;66004;55.096;38.760;2023-09-30T08:04:14;21.20;;;9.30;;
77078;SDS011;66004;55.096;38.760;2023-09-30T08:06:39;25.77;;;10.15;;
77078;SDS011;66004;55.096;38.760;2023-09-30T08:09:05;16.23;;;8.20;;
77078;SDS011;66004;55.096;38.760;2023-09-30T08:11:35;15.50;;;7.07;;
77078;SDS011;66004;55.096;38.760;2023-09-30T08:14:02;11.85;;;6.75;;
77078;SDS011;66004;55.096;38.760;2023-09-30T08:16:32;12.07;;;5.20;;
77078;SDS011;66004;55.096;38.760;2023-09-30T08:18:58;16.02;;;5.30;;
77078;SDS011;66004;55.096;38.760;2023-09-30T08:21:23;9.88;;;5.63;;
77078;SDS011;66004;55.096;38.760;2023-09-30T08:23:50;9.82;;;5.35;;
77078;SDS011;66004;55.096;38.760;2023-09-30T08:26:16;15.00;;;5.95;;
77078;SDS011;66004;55.096;38.760;2023-09-30T08:28:41;8.63;;;5.47;;
77078;SDS011;66004;55.096;38.760;2023-09-30T08:31:07;11.52;;;5.28;;
77078;SDS011;66004;55.096;38.760;2023-09-30T08:33:34;12.25;;;5.82;;
77078;SDS011;66004;55.096;38.760;2023-09-30T08:36:05;14.32;;;5.90;;
77078;SDS011;66004;55.096;38.760;2023-09-30T08:38:34;11.65;;;5.35;;
77078;SDS011;66004;55.096;38.760;2023-09-30T08:41:00;15.40;;;6.80;;
77078;SDS011;66004;55.096;38.760;2023-09-30T08:43:27;10.02;;;5.68;;
77078;SDS011;66004;55.096;38.760;2023-09-30T08:45:55;16.10;;;6.43;;
77078;SDS011;66004;55.096;38.760;2023-09-30T08:48:22;13.02;;;5.72;;
77078;SDS011;66004;55.096;38.760;2023-09-30T08:50:49;14.25;;;8.07;;
77078;SDS011;66004;55.096;38.760;2023-09-30T08:53:17;11.25;;;5.50;;
77078;SDS011;66004;55.096;38.760;2023-09-30T08:55:44;14.40;;;8.20;;
77078;SDS011;66004;55.096;38.760;2023-09-30T08:58:14;16.13;;;7.10;;
77078;SDS011;66004;55.096;38.760;2023-09-30T09:00:42;14.48;;;6.18;;
77078;SDS011;66004;55.096;38.760;2023-09-30T09:03:07;11.60;;;6.38;;
77078;SDS011;66004;55.096;38.760;2023-09-30T09:05:33;13.10;;;5.45;;
77078;SDS011;66004;55.096;38.760;2023-09-30T09:07:59;13.75;;;5.57;;
77078;SDS011;66004;55.096;38.760;2023-09-30T09:10:25;15.48;;;7.30;;
77078;SDS011;66004;55.096;38.760;2023-09-30T09:12:57;17.92;;;7.38;;
77078;SDS011;66004;55.096;38.760;2023-09-30T09:15:25;20.02;;;8.88;;
77078;SDS011;66004;55.096;38.760;2023-09-30T09:17:53;14.23;;;7.38;;
77078;SDS011;66004;55.096;38.760;2023-09-30T09:20:20;16.88;;;8.48;;
77078;SDS011;66004;55.096;38.760;2023-09-30T09:22:51;13.80;;;5.63;;
77078;SDS011;66004;55.096;38.760;2023-09-30T09:27:44;12.40;;;5.63;;
77078;SDS011;66004;55.096;38.760;2023-09-30T09:30:16;19.20;;;5.32;;
77078;SDS011;66004;55.096;38.760;2023-09-30T09:32:52;16.05;;;6.45;;
77078;SDS011;66004;55.096;38.760;2023-09-30T09:35:34;22.60;;;7.50;;
77078;SDS011;66004;55.096;38.760;2023-09-30T09:38:01;19.13;;;7.78;;
77078;SDS011;66004;55.096;38.760;2023-09-30T09:40:32;13.07;;;6.68;;
77078;SDS011;66004;55.096;38.760;2023-09-30T09:42:59;13.43;;;6.43;;
77078;SDS011;66004;55.096;38.760;2023-09-30T09:45:29;12.88;;;6.45;;
77078;SDS011;66004;55.096;38.760;2023-09-30T09:47:57;19.42;;;7.07;;
77078;SDS011;66004;55.096;38.760;2023-09-30T09:50:23;13.60;;;5.97;;
77078;SDS011;66004;55.096;38.760;2023-09-30T09:52:49;8.88;;;5.20;;
77078;SDS011;66004;55.096;38.760;2023-09-30T09:55:20;9.85;;;5.25;;
77078;SDS011;66004;55.096;38.760;2023-09-30T09:57:48;13.48;;;6.45;;
77078;SDS011;66004;55.096;38.760;2023-09-30T10:00:15;11.73;;;5.57;;
77078;SDS011;66004;55.096;38.760;2023-09-30T10:02:43;16.20;;;5.65;;
77078;SDS011;66004;55.096;38.760;2023-09-30T10:05:12;17.33;;;7.03;;
77078;SDS011;66004;55.096;38.760;2023-09-30T10:10:27;16.42;;;6.60;;
77078;SDS011;66004;55.096;38.760;2023-09-30T10:12:53;23.48;;;8.40;;
77078;SDS011;66004;55.096;38.760;2023-09-30T10:20:27;11.30;;;6.00;;
77078;SDS011;66004;55.096;38.760;2023-09-30T10:26:33;13.52;;;5.20;;
77078;SDS011;66004;55.096;38.760;2023-09-30T10:28:51;14.27;;;5.38;;
77078;SDS011;66004;55.096;38.760;2023-09-30T10:31:20;9.13;;;5.40;;
77078;SDS011;66004;55.096;38.760;2023-09-30T10:36:31;9.40;;;5.38;;
77078;SDS011;66004;55.096;38.760;2023-09-30T10:39:10;15.65;;;5.63;;
77078;SDS011;66004;55.096;38.760;2023-09-30T10:49:46;18.52;;;6.53;;
77078;SDS011;66004;55.096;38.760;2023-09-30T10:52:12;14.13;;;5.97;;
77078;SDS011;66004;55.096;38.760;2023-09-30T10:54:48;13.43;;;5.82;;
77078;SDS011;66004;55.096;38.760;2023-09-30T10:57:16;15.93;;;6.95;;
77078;SDS011;66004;55.096;38.760;2023-09-30T11:00:08;13.02;;;6.38;;
77078;SDS011;66004;55.096;38.760;2023-09-30T11:02:50;14.02;;;5.13;;
77078;SDS011;66004;55.096;38.760;2023-09-30T11:05:17;12.20;;;5.05;;
77078;SDS011;66004;55.096;38.760;2023-09-30T11:07:44;12.48;;;5.43;;
77078;SDS011;66004;55.096;38.760;2023-09-30T11:10:19;13.38;;;6.47;;
77078;SDS011;66004;55.096;38.760;2023-09-30T11:12:57;13.88;;;5.28;;
77078;SDS011;66004;55.096;38.760;2023-09-30T11:15:24;18.02;;;5.68;;
77078;SDS011;66004;55.096;38.760;2023-09-30T11:17:51;11.90;;;5.28;;
77078;SDS011;66004;55.096;38.760;2023-09-30T11:20:17;11.65;;;5.10;;
77078;SDS011;66004;55.096;38.760;2023-09-30T11:22:44;17.80;;;5.50;;
77078;SDS011;66004;55.096;38.760;2023-09-30T11:25:19;11.45;;;5.53;;
77078;SDS011;66004;55.096;38.760;2023-09-30T11:27:45;12.23;;;5.45;;
77078;SDS011;66004;55.096;38.760;2023-09-30T11:30:12;14.73;;;7.20;;
77078;SDS011;66004;55.096;38.760;2023-09-30T11:32:38;12.75;;;5.40;;
77078;SDS011;66004;55.096;38.760;2023-09-30T11:35:08;15.52;;;7.22;;
77078;SDS011;66004;55.096;38.760;2023-09-30T11:37:35;13.15;;;6.53;;
77078;SDS011;66004;55.096;38.760;2023-09-30T11:40:08;14.43;;;7.38;;
77078;SDS011;66004;55.096;38.760;2023-09-30T11:45:37;18.95;;;6.45;;
77078;SDS011;66004;55.096;38.760;2023-09-30T11:48:02;16.48;;;6.45;;
77078;SDS011;66004;55.096;38.760;2023-09-30T11:50:47;11.80;;;5.10;;
77078;SDS011;66004;55.096;38.760;2023-09-30T11:53:17;12.23;;;5.15;;
77078;SDS011;66004;55.096;38.760;2023-09-30T11:55:43;13.20;;;7.32;;
77078;SDS011;66004;55.096;38.760;2023-09-30T11:58:08;18.60;;;7.30;;
77078;SDS011;66004;55.096;38.760;2023-09-30T12:00:40;19.48;;;6.15;;
77078;SDS011;66004;55.096;38.760;2023-09-30T12:03:06;13.63;;;6.93;;
77078;SDS011;66004;55.096;38.760;2023-09-30T12:05:32;18.50;;;6.13;;
77078;SDS011;66004;55.096;38.760;2023-09-30T12:07:57;12.35;;;5.22;;
77078;SDS011;66004;55.096;38.760;2023-09-30T12:10:23;9.70;;;4.32;;
77078;SDS011;66004;55.096;38.760;2023-09-30T12:12:48;12.38;;;5.03;;
77078;SDS011;66004;55.096;38.760;2023-09-30T12:15:14;12.88;;;5.68;;
77078;SDS011;66004;55.096;38.760;2023-09-30T12:17:40;11.00;;;5.55;;
77078;SDS011;66004;55.096;38.760;2023-09-30T12:20:06;10.75;;;4.72;;
77078;SDS011;66004;55.096;38.760;2023-09-30T12:22:32;9.05;;;4.18;;
77078;SDS011;66004;55.096;38.760;2023-09-30T12:24:57;8.23;;;4.22;;
77078;SDS011;66004;55.096;38.760;2023-09-30T12:27:23;11.65;;;4.80;;
77078;SDS011;66004;55.096;38.760;2023-09-30T12:29:49;19.35;;;9.90;;
77078;SDS011;66004;55.096;38.760;2023-09-30T12:32:15;10.15;;;4.60;;
77078;SDS011;66004;55.096;38.760;2023-09-30T12:34:40;11.65;;;4.60;;
77078;SDS011;66004;55.096;38.760;2023-09-30T12:37:06;18.42;;;5.25;;
77078;SDS011;66004;55.096;38.760;2023-09-30T12:39:32;8.63;;;4.35;;
77078;SDS011;66004;55.096;38.760;2023-09-30T12:41:58;10.23;;;4.15;;
77078;SDS011;66004;55.096;38.760;2023-09-30T12:44:23;12.77;;;5.25;;
77078;SDS011;66004;55.096;38.760;2023-09-30T12:46:49;12.57;;;4.53;;
77078;SDS011;66004;55.096;38.760;2023-09-30T12:49:14;15.45;;;5.03;;
77078;SDS011;66004;55.096;38.760;2023-09-30T12:51:40;13.50;;;5.32;;
77078;SDS011;66004;55.096;38.760;2023-09-30T12:54:06;13.20;;;4.85;;
77078;SDS011;66004;55.096;38.760;2023-09-30T12:56:33;13.60;;;5.18;;
77078;SDS011;66004;55.096;38.760;2023-09-30T12:58:58;12.10;;;5.85;;
77078;SDS011;66004;55.096;38.760;2023-09-30T13:01:24;12.20;;;6.03;;
77078;SDS011;66004;55.096;38.760;2023-09-30T13:03:50;11.50;;;5.78;;
77078;SDS011;66004;55.096;38.760;2023-09-30T13:06:16;15.05;;;6.03;;
77078;SDS011;66004;55.096;38.760;2023-09-30T13:08:43;12.40;;;6.35;;
77078;SDS011;66004;55.096;38.760;2023-09-30T13:11:08;18.88;;;7.65;;
77078;SDS011;66004;55.096;38.760;2023-09-30T13:13:34;14.07;;;7.03;;
77078;SDS011;66004;55.096;38.760;2023-09-30T13:16:00;11.50;;;5.03;;
77078;SDS011;66004;55.096;38.760;2023-09-30T13:18:26;15.77;;;4.80;;
77078;SDS011;66004;55.096;38.760;2023-09-30T13:20:52;10.73;;;4.82;;
77078;SDS011;66004;55.096;38.760;2023-09-30T13:23:18;13.27;;;4.85;;
77078;SDS011;66004;55.096;38.760;2023-09-30T13:25:44;11.80;;;5.43;;
77078;SDS011;66004;55.096;38.760;2023-09-30T13:28:10;10.43;;;4.38;;
77078;SDS011;66004;55.096;38.760;2023-09-30T13:30:35;12.70;;;4.25;;
77078;SDS011;66004;55.096;38.760;2023-09-30T13:33:01;15.13;;;4.70;;
77078;SDS011;66004;55.096;38.760;2023-09-30T13:35:27;14.77;;;5.45;;
77078;SDS011;66004;55.096;38.760;2023-09-30T13:37:54;18.60;;;5.72;;
77078;SDS011;66004;55.096;38.760;2023-09-30T13:40:19;11.25;;;5.72;;
77078;SDS011;66004;55.096;38.760;2023-09-30T13:42:45;12.02;;;5.28;;
77078;SDS011;66004;55.096;38.760;2023-09-30T13:45:12;15.38;;;5.60;;
77078;SDS011;66004;55.096;38.760;2023-09-30T13:47:37;16.15;;;5.93;;
77078;SDS011;66004;55.096;38.760;2023-09-30T13:50:03;14.63;;;6.22;;
77078;SDS011;66004;55.096;38.760;2023-09-30T13:52:29;10.50;;;5.50;;
77078;SDS011;66004;55.096;38.760;2023-09-30T13:54:55;14.10;;;5.72;;
77078;SDS011;66004;55.096;38.760;2023-09-30T13:57:20;11.27;;;5.18;;
77078;SDS011;66004;55.096;38.760;2023-09-30T13:59:46;11.48;;;5.40;;
77078;SDS011;66004;55.096;38.760;2023-09-30T14:02:12;16.92;;;5.90;;
77078;SDS011;66004;55.096;38.760;2023-09-30T14:04:37;15.73;;;6.18;;
77078;SDS011;66004;55.096;38.760;2023-09-30T14:07:03;17.70;;;7.50;;
77078;SDS011;66004;55.096;38.760;2023-09-30T14:09:30;17.63;;;7.13;;
77078;SDS011;66004;55.096;38.760;2023-09-30T14:11:56;18.23;;;7.88;;
77078;SDS011;66004;55.096;38.760;2023-09-30T14:14:23;20.13;;;9.52;;
77078;SDS011;66004;55.096;38.760;2023-09-30T14:16:49;22.20;;;9.88;;
77078;SDS011;66004;55.096;38.760;2023-09-30T14:19:15;28.75;;;9.13;;
77078;SDS011;66004;55.096;38.760;2023-09-30T14:21:40;27.38;;;10.57;;
77078;SDS011;66004;55.096;38.760;2023-09-30T14:24:06;18.83;;;8.80;;
77078;SDS011;66004;55.096;38.760;2023-09-30T14:26:32;24.48;;;10.50;;
77078;SDS011;66004;55.096;38.760;2023-09-30T14:28:58;22.58;;;9.38;;
77078;SDS011;66004;55.096;38.760;2023-09-30T14:31:24;24.13;;;10.32;;
77078;SDS011;66004;55.096;38.760;2023-09-30T14:33:49;28.05;;;12.43;;
77078;SDS011;66004;55.096;38.760;2023-09-30T14:36:16;21.77;;;10.60;;
77078;SDS011;66004;55.096;38.760;2023-09-30T14:38:43;28.25;;;10.68;;
77078;SDS011;66004;55.096;38.760;2023-09-30T14:41:10;31.10;;;12.20;;
77078;SDS011;66004;55.096;38.760;2023-09-30T14:43:37;24.75;;;11.45;;